sensor_id;sensor_type;location;lat;lon;timestamp;temperature;humidity
20815;DHT22;10568;48.176;16.316;2023-03-01T00:02:21;-2.10;99.90
20815;DHT22;10568;48.176;16.316;2023-03-01T00:04:47;-2.10;99.90
20815;DHT22;10568;48.176;16.316;2023-03-01T00:07:13;-2.10;99.90
20815;DHT22;10568;48.176;16.316;2023-03-01T00:09:39;-2.20;99.90
20815;DHT22;10568;48.176;16.316;2023-03-01T00:14:32;-2.00;99.90
20815;DHT22;10568;48.176;16.316;2023-03-01T00:16:57;-2.20;99.90
20815;DHT22;10568;48.176;16.316;2023-03-01T00:21:50;-1.90;99.90
20815;DHT22;10568;48.176;16.316;2023-03-01T00:26:42;-2.20;99.90
20815;DHT22;10568;48.176;16.316;2023-03-01T00:29:08;-2.20;99.90
20815;DHT22;10568;48.176;16.316;2023-03-01T00:31:33;-2.30;99.90
20815;DHT22;10568;48.176;16.316;2023-03-01T00:34:02;-2.30;99.90
20815;DHT22;10568;48.176;16.316;2023-03-01T00:36:32;-2.30;99.90
20815;DHT22;10568;48.176;16.316;2023-03-01T00:38:58;-2.30;99.90
20815;DHT22;10568;48.176;16.316;2023-03-01T00:41:24;-2.30;99.90
20815;DHT22;10568;48.176;16.316;2023-03-01T00:43:52;-2.30;99.90
20815;DHT22;10568;48.176;16.316;2023-03-01T00:46:21;-2.40;99.90
20815;DHT22;10568;48.176;16.316;2023-03-01T00:48:47;-2.30;99.90
20815;DHT22;10568;48.176;16.316;2023-03-01T00:51:21;-2.40;99.90
20815;DHT22;10568;48.176;16.316;2023-03-01T00:53:51;-2.40;99.90
20815;DHT22;10568;48.176;16.316;2023-03-01T00:56:17;-2.40;99.90
20815;DHT22;10568;48.176;16.316;2023-03-01T00:58:43;-2.40;99.90
20815;DHT22;10568;48.176;16.316;2023-03-01T01:01:15;-2.40;99.90
20815;DHT22;10568;48.176;16.316;2023-03-01T01:03:53;-2.40;99.90
20815;DHT22;10568;48.176;16.316;2023-03-01T01:06:28;-2.50;99.90
20815;DHT22;10568;48.176;16.316;2023-03-01T01:08:55;-2.50;99.90
20815;DHT22;10568;48.176;16.316;2023-03-01T01:11:22;-2.50;99.90
20815;DHT22;10568;48.176;16.316;2023-03-01T01:13:48;-2.50;99.90
20815;DHT22;10568;48.176;16.316;2023-03-01T01:16:15;-2.50;99.90
20815;DHT22;10568;48.176;16.316;2023-03-01T01:18:41;-2.50;99.90
20815;DHT22;10568;48.176;16.316;2023-03-01T01:21:12;-2.50;99.90
20815;DHT22;10568;48.176;16.316;2023-03-01T01:23:39;-2.50;99.90
20815;DHT22;10568;48.176;16.316;2023-03-01T01:26:11;-2.50;99.90
20815;DHT22;10568;48.176;16.316;2023-03-01T01:28:37;-2.50;99.90
20815;DHT22;10568;48.176;16.316;2023-03-01T01:31:04;-2.50;99.90
20815;DHT22;10568;48.176;16.316;2023-03-01T01:33:30;-2.50;99.90
20815;DHT22;10568;48.176;16.316;2023-03-01T01:35:56;-2.40;99.90
20815;DHT22;10568;48.176;16.316;2023-03-01T01:38:22;-2.30;99.90
20815;DHT22;10568;48.176;16.316;2023-03-01T01:40:49;-2.20;99.90
20815;DHT22;10568;48.176;16.316;2023-03-01T01:43:31;-2.20;99.90
20815;DHT22;10568;48.176;16.316;2023-03-01T01:46:02;-2.10;99.90
20815;DHT22;10568;48.176;16.316;2023-03-01T01:48:39;-2.00;99.90
20815;DHT22;10568;48.176;16.316;2023-03-01T01:51:09;-1.90;99.90
20815;DHT22;10568;48.176;16.316;2023-03-01T01:53:36;-1.80;99.90
20815;DHT22;10568;48.176;16.316;2023-03-01T01:56:03;-1.70;99.90
20815;DHT22;10568;48.176;16.316;2023-03-01T01:58:32;-1.70;99.90
20815;DHT22;10568;48.176;16.316;2023-03-01T02:00:58;-1.60;99.90
20815;DHT22;10568;48.176;16.316;2023-03-01T02:03:29;-1.50;99.90
20815;DHT22;10568;48.176;16.316;2023-03-01T02:09:07;-1.40;99.90
20815;DHT22;10568;48.176;16.316;2023-03-01T02:11:34;-1.30;99.90
20815;DHT22;10568;48.176;16.316;2023-03-01T02:14:03;-1.20;99.90
20815;DHT22;10568;48.176;16.316;2023-03-01T02:16:29;-1.20;99.90
20815;DHT22;10568;48.176;16.316;2023-03-01T02:18:57;-1.10;99.90
20815;DHT22;10568;48.176;16.316;2023-03-01T02:21:45;-1.10;99.90
20815;DHT22;10568;48.176;16.316;2023-03-01T02:24:21;-1.00;99.90
20815;DHT22;10568;48.176;16.316;2023-03-01T02:26:52;-1.00;99.90
20815;DHT22;10568;48.176;16.316;2023-03-01T02:29:21;-0.90;99.90
20815;DHT22;10568;48.176;16.316;2023-03-01T02:31:47;-0.90;99.90
20815;DHT22;10568;48.176;16.316;2023-03-01T02:34:17;-0.80;99.90
20815;DHT22;10568;48.176;16.316;2023-03-01T02:37:08;-0.80;99.90
20815;DHT22;10568;48.176;16.316;2023-03-01T02:39:46;-0.70;99.90
20815;DHT22;10568;48.176;16.316;2023-03-01T02:42:17;-0.70;99.90
20815;DHT22;10568;48.176;16.316;2023-03-01T02:44:43;-0.60;99.90
20815;DHT22;10568;48.176;16.316;2023-03-01T02:47:10;-0.60;99.90
20815;DHT22;10568;48.176;16.316;2023-03-01T02:49:37;-0.60;99.90
20815;DHT22;10568;48.176;16.316;2023-03-01T02:52:40;-0.60;99.90
20815;DHT22;10568;48.176;16.316;2023-03-01T02:55:13;-0.50;99.90
20815;DHT22;10568;48.176;16.316;2023-03-01T02:57:45;-0.50;99.90
20815;DHT22;10568;48.176;16.316;2023-03-01T03:00:21;-0.40;99.90
20815;DHT22;10568;48.176;16.316;2023-03-01T03:02:50;-0.40;99.90
20815;DHT22;10568;48.176;16.316;2023-03-01T03:05:27;-0.40;99.90
20815;DHT22;10568;48.176;16.316;2023-03-01T03:07:53;-0.30;99.90
20815;DHT22;10568;48.176;16.316;2023-03-01T03:10:22;-0.30;99.90
20815;DHT22;10568;48.176;16.316;2023-03-01T03:12:50;-0.30;99.90
20815;DHT22;10568;48.176;16.316;2023-03-01T03:15:17;-0.20;99.90
20815;DHT22;10568;48.176;16.316;2023-03-01T03:17:43;-0.20;99.90
20815;DHT22;10568;48.176;16.316;2023-03-01T03:20:11;-0.20;99.90
20815;DHT22;10568;48.176;16.316;2023-03-01T03:22:39;-0.10;99.90
20815;DHT22;10568;48.176;16.316;2023-03-01T03:25:07;-0.10;99.90
20815;DHT22;10568;48.176;16.316;2023-03-01T03:27:37;-0.10;99.90
20815;DHT22;10568;48.176;16.316;2023-03-01T03:30:05;-0.10;99.90
20815;DHT22;10568;48.176;16.316;2023-03-01T03:32:38;-0.10;99.90
20815;DHT22;10568;48.176;16.316;2023-03-01T03:35:05;0.00;99.90
20815;DHT22;10568;48.176;16.316;2023-03-01T03:37:41;0.00;99.90
20815;DHT22;10568;48.176;16.316;2023-03-01T03:40:26;0.00;99.90
20815;DHT22;10568;48.176;16.316;2023-03-01T03:42:52;0.00;99.90
20815;DHT22;10568;48.176;16.316;2023-03-01T03:45:18;0.00;99.90
20815;DHT22;10568;48.176;16.316;2023-03-01T03:47:44;0.00;99.90
20815;DHT22;10568;48.176;16.316;2023-03-01T03:50:15;0.00;99.90
20815;DHT22;10568;48.176;16.316;2023-03-01T03:52:42;0.00;99.90
20815;DHT22;10568;48.176;16.316;2023-03-01T03:55:09;0.10;99.90
20815;DHT22;10568;48.176;16.316;2023-03-01T03:57:39;0.10;99.90
20815;DHT22;10568;48.176;16.316;2023-03-01T04:00:07;0.10;99.90
20815;DHT22;10568;48.176;16.316;2023-03-01T04:02:45;0.10;99.90
20815;DHT22;10568;48.176;16.316;2023-03-01T04:05:14;0.10;99.90
20815;DHT22;10568;48.176;16.316;2023-03-01T04:07:41;0.20;99.90
20815;DHT22;10568;48.176;16.316;2023-03-01T04:10:10;0.20;99.90
20815;DHT22;10568;48.176;16.316;2023-03-01T04:12:36;0.20;99.90
20815;DHT22;10568;48.176;16.316;2023-03-01T04:15:03;0.20;99.90
20815;DHT22;10568;48.176;16.316;2023-03-01T04:17:42;0.20;99.90
20815;DHT22;10568;48.176;16.316;2023-03-01T04:20:10;0.20;99.90
20815;DHT22;10568;48.176;16.316;2023-03-01T04:22:37;0.30;99.90
20815;DHT22;10568;48.176;16.316;2023-03-01T04:25:03;0.30;99.90
20815;DHT22;10568;48.176;16.316;2023-03-01T04:27:33;0.30;99.90
20815;DHT22;10568;48.176;16.316;2023-03-01T04:29:59;0.30;99.90
20815;DHT22;10568;48.176;16.316;2023-03-01T04:32:25;0.40;99.90
20815;DHT22;10568;48.176;16.316;2023-03-01T04:35:09;0.40;99.90
20815;DHT22;10568;48.176;16.316;2023-03-01T04:37:34;0.40;99.90
20815;DHT22;10568;48.176;16.316;2023-03-01T04:40:01;0.40;99.90
20815;DHT22;10568;48.176;16.316;2023-03-01T04:42:37;0.50;99.90
20815;DHT22;10568;48.176;16.316;2023-03-01T04:45:04;0.50;99.90
20815;DHT22;10568;48.176;16.316;2023-03-01T04:47:41;0.50;99.90
20815;DHT22;10568;48.176;16.316;2023-03-01T04:50:08;0.50;99.90
20815;DHT22;10568;48.176;16.316;2023-03-01T04:52:35;0.60;99.90
20815;DHT22;10568;48.176;16.316;2023-03-01T04:55:01;0.60;99.90
20815;DHT22;10568;48.176;16.316;2023-03-01T04:57:27;0.60;99.90
20815;DHT22;10568;48.176;16.316;2023-03-01T04:59:53;0.60;99.90
20815;DHT22;10568;48.176;16.316;2023-03-01T05:02:19;0.70;99.90
20815;DHT22;10568;48.176;16.316;2023-03-01T05:04:44;0.70;99.90
20815;DHT22;10568;48.176;16.316;2023-03-01T05:07:10;0.70;99.90
20815;DHT22;10568;48.176;16.316;2023-03-01T05:09:38;0.70;99.90
20815;DHT22;10568;48.176;16.316;2023-03-01T05:12:04;0.80;99.90
20815;DHT22;10568;48.176;16.316;2023-03-01T05:14:30;0.80;99.90
20815;DHT22;10568;48.176;16.316;2023-03-01T05:16:56;0.80;99.90
20815;DHT22;10568;48.176;16.316;2023-03-01T05:19:30;0.80;99.90
20815;DHT22;10568;48.176;16.316;2023-03-01T05:21:57;0.80;99.90
20815;DHT22;10568;48.176;16.316;2023-03-01T05:24:38;0.80;99.90
20815;DHT22;10568;48.176;16.316;2023-03-01T05:27:04;0.80;99.90
20815;DHT22;10568;48.176;16.316;2023-03-01T05:29:31;0.80;99.90
20815;DHT22;10568;48.176;16.316;2023-03-01T05:32:01;0.80;99.90
20815;DHT22;10568;48.176;16.316;2023-03-01T05:34:31;0.80;99.90
20815;DHT22;10568;48.176;16.316;2023-03-01T05:36:57;0.80;99.90
20815;DHT22;10568;48.176;16.316;2023-03-01T05:39:26;0.80;99.90
20815;DHT22;10568;48.176;16.316;2023-03-01T05:41:53;0.80;99.90
20815;DHT22;10568;48.176;16.316;2023-03-01T05:44:19;0.80;99.90
20815;DHT22;10568;48.176;16.316;2023-03-01T05:46:45;0.90;99.90
20815;DHT22;10568;48.176;16.316;2023-03-01T05:49:12;0.90;99.90
20815;DHT22;10568;48.176;16.316;2023-03-01T05:51:42;0.90;99.90
20815;DHT22;10568;48.176;16.316;2023-03-01T05:54:09;1.00;99.90
20815;DHT22;10568;48.176;16.316;2023-03-01T05:56:36;1.00;99.90
20815;DHT22;10568;48.176;16.316;2023-03-01T05:59:03;1.00;99.90
20815;DHT22;10568;48.176;16.316;2023-03-01T06:01:31;1.10;99.90
20815;DHT22;10568;48.176;16.316;2023-03-01T06:03:56;1.10;99.90
20815;DHT22;10568;48.176;16.316;2023-03-01T06:06:23;1.10;99.90
20815;DHT22;10568;48.176;16.316;2023-03-01T06:08:50;1.10;99.90
20815;DHT22;10568;48.176;16.316;2023-03-01T06:11:16;1.20;99.90
20815;DHT22;10568;48.176;16.316;2023-03-01T06:13:43;1.20;99.90
20815;DHT22;10568;48.176;16.316;2023-03-01T06:16:09;1.30;99.90
20815;DHT22;10568;48.176;16.316;2023-03-01T06:18:36;1.30;99.90
20815;DHT22;10568;48.176;16.316;2023-03-01T06:21:02;1.40;99.90
20815;DHT22;10568;48.176;16.316;2023-03-01T06:23:28;1.40;99.90
20815;DHT22;10568;48.176;16.316;2023-03-01T06:25:54;1.40;99.90
20815;DHT22;10568;48.176;16.316;2023-03-01T06:28:20;1.50;99.90
20815;DHT22;10568;48.176;16.316;2023-03-01T06:30:46;1.60;99.90
20815;DHT22;10568;48.176;16.316;2023-03-01T06:33:13;1.60;99.90
20815;DHT22;10568;48.176;16.316;2023-03-01T06:35:39;1.60;99.90
20815;DHT22;10568;48.176;16.316;2023-03-01T06:38:05;1.70;99.90
20815;DHT22;10568;48.176;16.316;2023-03-01T06:40:32;1.70;99.90
20815;DHT22;10568;48.176;16.316;2023-03-01T06:42:58;1.80;99.90
20815;DHT22;10568;48.176;16.316;2023-03-01T06:45:25;1.80;99.90
20815;DHT22;10568;48.176;16.316;2023-03-01T06:47:51;1.80;99.90
20815;DHT22;10568;48.176;16.316;2023-03-01T06:50:17;1.90;99.90
20815;DHT22;10568;48.176;16.316;2023-03-01T06:52:44;1.90;99.90
20815;DHT22;10568;48.176;16.316;2023-03-01T06:55:14;2.00;99.90
20815;DHT22;10568;48.176;16.316;2023-03-01T06:57:39;1.90;99.90
20815;DHT22;10568;48.176;16.316;2023-03-01T07:00:06;2.00;99.90
20815;DHT22;10568;48.176;16.316;2023-03-01T07:02:32;2.10;99.90
20815;DHT22;10568;48.176;16.316;2023-03-01T07:04:58;2.20;99.90
20815;DHT22;10568;48.176;16.316;2023-03-01T07:07:24;2.20;99.90
20815;DHT22;10568;48.176;16.316;2023-03-01T07:09:50;2.20;99.90
20815;DHT22;10568;48.176;16.316;2023-03-01T07:12:16;2.20;99.90
20815;DHT22;10568;48.176;16.316;2023-03-01T07:14:43;2.30;99.90
20815;DHT22;10568;48.176;16.316;2023-03-01T07:17:09;2.30;99.90
20815;DHT22;10568;48.176;16.316;2023-03-01T07:19:35;2.40;99.90
20815;DHT22;10568;48.176;16.316;2023-03-01T07:22:01;2.50;99.90
20815;DHT22;10568;48.176;16.316;2023-03-01T07:24:27;2.50;99.90
20815;DHT22;10568;48.176;16.316;2023-03-01T07:26:52;2.60;99.90
20815;DHT22;10568;48.176;16.316;2023-03-01T07:29:19;2.70;99.90
20815;DHT22;10568;48.176;16.316;2023-03-01T07:31:45;2.80;99.90
20815;DHT22;10568;48.176;16.316;2023-03-01T07:34:10;2.80;99.90
20815;DHT22;10568;48.176;16.316;2023-03-01T07:36:37;2.90;99.90
20815;DHT22;10568;48.176;16.316;2023-03-01T07:39:03;2.90;99.90
20815;DHT22;10568;48.176;16.316;2023-03-01T07:41:29;2.80;99.90
20815;DHT22;10568;48.176;16.316;2023-03-01T07:43:55;2.90;99.90
20815;DHT22;10568;48.176;16.316;2023-03-01T07:46:21;3.10;99.90
20815;DHT22;10568;48.176;16.316;2023-03-01T07:48:47;3.20;99.90
20815;DHT22;10568;48.176;16.316;2023-03-01T07:51:13;3.20;99.90
20815;DHT22;10568;48.176;16.316;2023-03-01T07:53:39;3.20;99.90
20815;DHT22;10568;48.176;16.316;2023-03-01T07:56:07;3.20;99.90
20815;DHT22;10568;48.176;16.316;2023-03-01T07:58:39;3.30;99.90
20815;DHT22;10568;48.176;16.316;2023-03-01T08:01:09;3.30;99.90
20815;DHT22;10568;48.176;16.316;2023-03-01T08:03:35;3.50;99.90
20815;DHT22;10568;48.176;16.316;2023-03-01T08:06:06;3.60;99.90
20815;DHT22;10568;48.176;16.316;2023-03-01T08:08:33;3.60;99.90
20815;DHT22;10568;48.176;16.316;2023-03-01T08:11:00;3.70;99.90
20815;DHT22;10568;48.176;16.316;2023-03-01T08:13:27;3.90;99.90
20815;DHT22;10568;48.176;16.316;2023-03-01T08:15:53;3.90;99.90
20815;DHT22;10568;48.176;16.316;2023-03-01T08:18:20;4.00;99.90
20815;DHT22;10568;48.176;16.316;2023-03-01T08:20:46;4.00;99.90
20815;DHT22;10568;48.176;16.316;2023-03-01T08:23:12;4.10;99.90
20815;DHT22;10568;48.176;16.316;2023-03-01T08:25:38;4.20;99.90
20815;DHT22;10568;48.176;16.316;2023-03-01T08:28:05;4.20;99.90
20815;DHT22;10568;48.176;16.316;2023-03-01T08:30:31;4.40;99.90
20815;DHT22;10568;48.176;16.316;2023-03-01T08:32:57;4.40;99.90
20815;DHT22;10568;48.176;16.316;2023-03-01T08:35:23;4.50;99.90
20815;DHT22;10568;48.176;16.316;2023-03-01T08:37:49;4.70;99.90
20815;DHT22;10568;48.176;16.316;2023-03-01T08:40:15;4.80;99.90
20815;DHT22;10568;48.176;16.316;2023-03-01T08:42:41;4.90;99.90
20815;DHT22;10568;48.176;16.316;2023-03-01T08:45:11;5.00;99.90
20815;DHT22;10568;48.176;16.316;2023-03-01T08:47:37;4.90;99.90
20815;DHT22;10568;48.176;16.316;2023-03-01T08:50:04;5.00;99.90
20815;DHT22;10568;48.176;16.316;2023-03-01T08:52:29;5.10;99.90
20815;DHT22;10568;48.176;16.316;2023-03-01T08:54:56;5.20;99.90
20815;DHT22;10568;48.176;16.316;2023-03-01T08:57:22;5.20;99.90
20815;DHT22;10568;48.176;16.316;2023-03-01T08:59:47;5.20;99.90
20815;DHT22;10568;48.176;16.316;2023-03-01T09:02:17;5.20;99.90
20815;DHT22;10568;48.176;16.316;2023-03-01T09:04:44;5.30;99.90
20815;DHT22;10568;48.176;16.316;2023-03-01T09:07:10;5.50;99.90
20815;DHT22;10568;48.176;16.316;2023-03-01T09:09:37;5.60;99.90
20815;DHT22;10568;48.176;16.316;2023-03-01T09:12:03;5.80;99.90
20815;DHT22;10568;48.176;16.316;2023-03-01T09:14:29;5.80;99.90
20815;DHT22;10568;48.176;16.316;2023-03-01T09:16:55;6.00;99.90
20815;DHT22;10568;48.176;16.316;2023-03-01T09:19:21;6.20;99.90
20815;DHT22;10568;48.176;16.316;2023-03-01T09:21:47;6.30;99.90
20815;DHT22;10568;48.176;16.316;2023-03-01T09:24:21;6.40;99.90
20815;DHT22;10568;48.176;16.316;2023-03-01T09:26:47;6.40;99.90
20815;DHT22;10568;48.176;16.316;2023-03-01T09:29:14;6.20;99.90
20815;DHT22;10568;48.176;16.316;2023-03-01T09:31:40;6.30;99.90
20815;DHT22;10568;48.176;16.316;2023-03-01T09:34:07;6.50;99.90
20815;DHT22;10568;48.176;16.316;2023-03-01T09:36:33;6.50;99.90
20815;DHT22;10568;48.176;16.316;2023-03-01T09:38:59;6.30;99.90
20815;DHT22;10568;48.176;16.316;2023-03-01T09:44:26;6.80;99.90
20815;DHT22;10568;48.176;16.316;2023-03-01T09:46:53;6.80;99.90
20815;DHT22;10568;48.176;16.316;2023-03-01T09:49:23;6.80;99.90
20815;DHT22;10568;48.176;16.316;2023-03-01T09:54:40;6.90;99.90
20815;DHT22;10568;48.176;16.316;2023-03-01T09:57:19;7.00;99.90
20815;DHT22;10568;48.176;16.316;2023-03-01T10:02:37;7.20;99.90
20815;DHT22;10568;48.176;16.316;2023-03-01T10:10:33;7.50;99.90
20815;DHT22;10568;48.176;16.316;2023-03-01T10:15:45;7.80;99.90
20815;DHT22;10568;48.176;16.316;2023-03-01T10:18:16;7.90;99.90
20815;DHT22;10568;48.176;16.316;2023-03-01T10:21:00;7.90;99.90
20815;DHT22;10568;48.176;16.316;2023-03-01T10:23:29;7.60;99.90
20815;DHT22;10568;48.176;16.316;2023-03-01T10:31:03;7.80;99.90
20815;DHT22;10568;48.176;16.316;2023-03-01T10:33:38;7.90;99.90
20815;DHT22;10568;48.176;16.316;2023-03-01T10:36:08;8.00;99.90
20815;DHT22;10568;48.176;16.316;2023-03-01T10:38:57;8.30;99.90
20815;DHT22;10568;48.176;16.316;2023-03-01T10:41:25;8.30;99.90
20815;DHT22;10568;48.176;16.316;2023-03-01T10:43:56;8.30;99.90
20815;DHT22;10568;48.176;16.316;2023-03-01T10:46:24;8.40;99.90
20815;DHT22;10568;48.176;16.316;2023-03-01T10:52:25;8.60;99.90
20815;DHT22;10568;48.176;16.316;2023-03-01T10:54:55;8.30;99.90
20815;DHT22;10568;48.176;16.316;2023-03-01T10:57:30;8.30;99.90
20815;DHT22;10568;48.176;16.316;2023-03-01T11:03:10;8.50;99.90
20815;DHT22;10568;48.176;16.316;2023-03-01T11:05:34;8.20;99.90
20815;DHT22;10568;48.176;16.316;2023-03-01T11:08:02;8.50;99.90
20815;DHT22;10568;48.176;16.316;2023-03-01T11:10:34;8.70;99.90
20815;DHT22;10568;48.176;16.316;2023-03-01T11:13:16;8.80;99.90
20815;DHT22;10568;48.176;16.316;2023-03-01T11:15:43;8.70;99.90
20815;DHT22;10568;48.176;16.316;2023-03-01T11:18:23;9.00;99.90
20815;DHT22;10568;48.176;16.316;2023-03-01T11:20:53;9.00;99.90
20815;DHT22;10568;48.176;16.316;2023-03-01T11:23:21;9.30;99.90
20815;DHT22;10568;48.176;16.316;2023-03-01T11:25:56;9.60;99.90
20815;DHT22;10568;48.176;16.316;2023-03-01T11:28:22;9.70;99.90
20815;DHT22;10568;48.176;16.316;2023-03-01T11:31:02;10.10;99.90
20815;DHT22;10568;48.176;16.316;2023-03-01T11:36:16;10.00;97.60
20815;DHT22;10568;48.176;16.316;2023-03-01T11:38:43;10.10;99.90
20815;DHT22;10568;48.176;16.316;2023-03-01T11:41:13;10.30;97.90
20815;DHT22;10568;48.176;16.316;2023-03-01T12:00:10;10.20;98.30
20815;DHT22;10568;48.176;16.316;2023-03-01T12:37:44;9.70;99.40
20815;DHT22;10568;48.176;16.316;2023-03-01T12:43:06;9.90;99.10
20815;DHT22;10568;48.176;16.316;2023-03-01T12:51:14;10.00;99.40
20815;DHT22;10568;48.176;16.316;2023-03-01T12:53:49;9.90;99.90
20815;DHT22;10568;48.176;16.316;2023-03-01T12:56:21;10.00;99.90
20815;DHT22;10568;48.176;16.316;2023-03-01T13:12:02;10.40;99.00
20815;DHT22;10568;48.176;16.316;2023-03-01T13:16:57;10.30;99.50
20815;DHT22;10568;48.176;16.316;2023-03-01T13:19:25;10.30;99.90
20815;DHT22;10568;48.176;16.316;2023-03-01T13:21:53;10.30;99.90
20815;DHT22;10568;48.176;16.316;2023-03-01T13:29:57;10.30;99.90
20815;DHT22;10568;48.176;16.316;2023-03-01T13:32:32;10.10;99.10
20815;DHT22;10568;48.176;16.316;2023-03-01T13:34:59;10.40;99.90
20815;DHT22;10568;48.176;16.316;2023-03-01T13:37:31;10.40;99.90
20815;DHT22;10568;48.176;16.316;2023-03-01T13:40:00;10.10;99.50
20815;DHT22;10568;48.176;16.316;2023-03-01T13:42:37;10.30;99.90
20815;DHT22;10568;48.176;16.316;2023-03-01T13:48:02;10.00;99.90
20815;DHT22;10568;48.176;16.316;2023-03-01T13:50:36;10.10;99.90
20815;DHT22;10568;48.176;16.316;2023-03-01T13:53:06;10.00;99.90
20815;DHT22;10568;48.176;16.316;2023-03-01T13:55:40;10.10;99.90
20815;DHT22;10568;48.176;16.316;2023-03-01T14:00:58;10.00;99.90
20815;DHT22;10568;48.176;16.316;2023-03-01T14:03:25;10.10;99.90
20815;DHT22;10568;48.176;16.316;2023-03-01T14:06:12;10.00;99.90
20815;DHT22;10568;48.176;16.316;2023-03-01T14:08:39;9.80;99.90
20815;DHT22;10568;48.176;16.316;2023-03-01T14:19:26;9.50;99.90
20815;DHT22;10568;48.176;16.316;2023-03-01T14:24:31;9.30;99.90
20815;DHT22;10568;48.176;16.316;2023-03-01T14:27:01;9.40;99.90
20815;DHT22;10568;48.176;16.316;2023-03-01T14:29:36;9.30;99.90
20815;DHT22;10568;48.176;16.316;2023-03-01T14:32:23;9.40;99.90
20815;DHT22;10568;48.176;16.316;2023-03-01T14:34:51;9.50;99.90
20815;DHT22;10568;48.176;16.316;2023-03-01T14:37:26;9.40;99.90
20815;DHT22;10568;48.176;16.316;2023-03-01T14:39:53;9.40;99.90
20815;DHT22;10568;48.176;16.316;2023-03-01T14:42:21;9.30;99.90
20815;DHT22;10568;48.176;16.316;2023-03-01T14:44:50;9.20;99.90
20815;DHT22;10568;48.176;16.316;2023-03-01T14:47:36;9.10;99.90
20815;DHT22;10568;48.176;16.316;2023-03-01T14:50:15;9.10;99.90
20815;DHT22;10568;48.176;16.316;2023-03-01T14:52:47;9.00;99.90
20815;DHT22;10568;48.176;16.316;2023-03-01T14:55:59;8.90;99.90
20815;DHT22;10568;48.176;16.316;2023-03-01T14:58:12;9.00;99.90
20815;DHT22;10568;48.176;16.316;2023-03-01T15:00:42;8.90;99.90
20815;DHT22;10568;48.176;16.316;2023-03-01T15:03:17;8.70;99.90
20815;DHT22;10568;48.176;16.316;2023-03-01T15:05:44;8.90;99.90
20815;DHT22;10568;48.176;16.316;2023-03-01T15:08:19;8.80;99.90
20815;DHT22;10568;48.176;16.316;2023-03-01T15:10:58;8.90;99.90
20815;DHT22;10568;48.176;16.316;2023-03-01T15:13:26;8.80;99.90
20815;DHT22;10568;48.176;16.316;2023-03-01T15:18:33;8.70;99.90
20815;DHT22;10568;48.176;16.316;2023-03-01T15:21:21;8.70;99.90
20815;DHT22;10568;48.176;16.316;2023-03-01T15:26:56;8.50;99.90
20815;DHT22;10568;48.176;16.316;2023-03-01T15:29:26;8.40;99.90
20815;DHT22;10568;48.176;16.316;2023-03-01T15:32:06;8.50;99.90
20815;DHT22;10568;48.176;16.316;2023-03-01T15:34:36;8.40;99.90
20815;DHT22;10568;48.176;16.316;2023-03-01T15:37:04;8.30;99.90
20815;DHT22;10568;48.176;16.316;2023-03-01T15:39:42;8.20;99.90
20815;DHT22;10568;48.176;16.316;2023-03-01T15:48:13;8.10;99.90
20815;DHT22;10568;48.176;16.316;2023-03-01T15:50:40;8.00;99.90
20815;DHT22;10568;48.176;16.316;2023-03-01T15:53:12;8.10;99.90
20815;DHT22;10568;48.176;16.316;2023-03-01T15:55:40;8.00;99.90
20815;DHT22;10568;48.176;16.316;2023-03-01T15:58:09;7.90;99.90
20815;DHT22;10568;48.176;16.316;2023-03-01T16:00:35;8.00;99.90
20815;DHT22;10568;48.176;16.316;2023-03-01T16:03:01;7.90;99.90
20815;DHT22;10568;48.176;16.316;2023-03-01T16:05:32;7.90;99.90
20815;DHT22;10568;48.176;16.316;2023-03-01T16:07:59;7.80;99.90
20815;DHT22;10568;48.176;16.316;2023-03-01T16:10:26;7.80;99.90
20815;DHT22;10568;48.176;16.316;2023-03-01T16:12:53;7.80;99.90
20815;DHT22;10568;48.176;16.316;2023-03-01T16:15:25;7.80;99.90
20815;DHT22;10568;48.176;16.316;2023-03-01T16:17:51;7.70;99.90
20815;DHT22;10568;48.176;16.316;2023-03-01T16:20:18;7.70;99.90
20815;DHT22;10568;48.176;16.316;2023-03-01T16:22:44;7.60;99.90
20815;DHT22;10568;48.176;16.316;2023-03-01T16:25:11;7.60;99.90
20815;DHT22;10568;48.176;16.316;2023-03-01T16:27:38;7.60;99.90
20815;DHT22;10568;48.176;16.316;2023-03-01T16:30:05;7.60;99.90
20815;DHT22;10568;48.176;16.316;2023-03-01T16:32:32;7.50;99.90
20815;DHT22;10568;48.176;16.316;2023-03-01T16:34:58;7.50;99.90
20815;DHT22;10568;48.176;16.316;2023-03-01T16:37:24;7.40;99.90
20815;DHT22;10568;48.176;16.316;2023-03-01T16:39:49;7.40;99.90
20815;DHT22;10568;48.176;16.316;2023-03-01T16:42:17;7.40;99.90
20815;DHT22;10568;48.176;16.316;2023-03-01T16:44:43;7.30;99.90
20815;DHT22;10568;48.176;16.316;2023-03-01T16:47:09;7.30;99.90
20815;DHT22;10568;48.176;16.316;2023-03-01T16:49:35;7.30;99.90
20815;DHT22;10568;48.176;16.316;2023-03-01T16:52:01;7.30;99.90
20815;DHT22;10568;48.176;16.316;2023-03-01T16:54:36;7.20;99.90
20815;DHT22;10568;48.176;16.316;2023-03-01T16:57:02;7.20;99.90
20815;DHT22;10568;48.176;16.316;2023-03-01T16:59:28;7.20;99.90
20815;DHT22;10568;48.176;16.316;2023-03-01T17:01:54;7.20;99.90
20815;DHT22;10568;48.176;16.316;2023-03-01T17:04:20;7.20;99.90
20815;DHT22;10568;48.176;16.316;2023-03-01T17:06:46;7.20;99.90
20815;DHT22;10568;48.176;16.316;2023-03-01T17:09:14;7.10;99.90
20815;DHT22;10568;48.176;16.316;2023-03-01T17:11:42;7.10;99.90
20815;DHT22;10568;48.176;16.316;2023-03-01T17:14:09;7.10;99.90
20815;DHT22;10568;48.176;16.316;2023-03-01T17:16:35;7.00;99.90
20815;DHT22;10568;48.176;16.316;2023-03-01T17:19:01;7.00;99.90
20815;DHT22;10568;48.176;16.316;2023-03-01T17:21:27;7.00;99.90
20815;DHT22;10568;48.176;16.316;2023-03-01T17:23:56;6.90;99.90
20815;DHT22;10568;48.176;16.316;2023-03-01T17:26:22;6.90;99.90
20815;DHT22;10568;48.176;16.316;2023-03-01T17:28:48;6.80;99.90
20815;DHT22;10568;48.176;16.316;2023-03-01T17:31:18;6.80;99.90
20815;DHT22;10568;48.176;16.316;2023-03-01T17:33:44;6.70;99.90
20815;DHT22;10568;48.176;16.316;2023-03-01T17:36:10;6.60;99.90
20815;DHT22;10568;48.176;16.316;2023-03-01T17:38:36;6.60;99.90
20815;DHT22;10568;48.176;16.316;2023-03-01T17:41:03;6.50;99.90
20815;DHT22;10568;48.176;16.316;2023-03-01T17:43:30;6.40;99.90
20815;DHT22;10568;48.176;16.316;2023-03-01T17:45:57;6.40;99.90
20815;DHT22;10568;48.176;16.316;2023-03-01T17:48:23;6.30;99.90
20815;DHT22;10568;48.176;16.316;2023-03-01T17:50:50;6.30;99.90
20815;DHT22;10568;48.176;16.316;2023-03-01T17:53:16;6.20;99.90
20815;DHT22;10568;48.176;16.316;2023-03-01T17:55:43;6.10;99.90
20815;DHT22;10568;48.176;16.316;2023-03-01T17:58:12;6.00;99.90
20815;DHT22;10568;48.176;16.316;2023-03-01T18:00:39;5.90;99.90
20815;DHT22;10568;48.176;16.316;2023-03-01T18:03:05;5.80;99.90
20815;DHT22;10568;48.176;16.316;2023-03-01T18:05:33;5.70;99.90
20815;DHT22;10568;48.176;16.316;2023-03-01T18:07:59;5.60;99.90
20815;DHT22;10568;48.176;16.316;2023-03-01T18:10:26;5.50;99.90